Worthington, MN

7:22 PM CST on December 03, 2016 (GMT -0600)
Worthington Municipal

Weather History for KOTG - October, 2011

Change the Weather History Date:

Tuesday, October 25, 2011

  Actual Average Record
Temperature  
Mean Temperature 48 °F -  
Max Temperature 55 °F 51 °F 80 °F (1989)
Min Temperature 42 °F 34 °F 19 °F (1972)
Degree Days  
Heating Degree Days 16    
Moisture  
Dew Point 33 °F    
Average Humidity 59    
Maximum Humidity 76    
Minimum Humidity 44    
Precipitation  
Precipitation 0.05 in - - ()
Sea Level Pressure  
Sea Level Pressure 29.83 in    
Wind  
Wind Speed 14 mph (NNE)    
Max Wind Speed 25 mph    
Max Gust Speed 33 mph    
Visibility 10 miles    
Events      
Averages and records for this station are not official NWS values.
T = Trace of Precipitation, MM = Missing Value Source: NWS Daily Summary

Daily Weather History Graph

Daily Weather History Graph

Search for Another Location

Airport or City:

Trip Planner

Search our weather history database for the weather conditions in past years. The results will help you decide how hot, cold, wet, or windy it might be!

Date:

Astronomy

Oct. 25, 2011 Rise Set
Actual Time 7:48 AM CDT 6:23 PM CDT
Civil Twilight 7:19 AM CDT 6:52 PM CDT
Nautical Twilight 6:45 AM CDT 7:26 PM CDT
Astronomical Twilight 6:12 AM CDT 7:59 PM CDT
Moon 6:21 AM CDT (10/25) 5:25 PM CDT (10/25)
Length of Visible Light 11h 33m
Length of Day
10h 34m
Waning Crescent, 2% of the Moon is Illuminated
Oct 25
Waning Crescent
Oct 26
New
Nov 2
First Quarter
Nov 10
Full
Nov 18
Last Quarter

Hourly Weather History & Observations

Time (CDT) Temp. Windchill Dew Point Humidity Pressure Visibility Wind Dir Wind Speed Gust Speed Precip Events Conditions
12:15 AM 48.2 °F - 30.2 °F 50% 29.84 in 10.0 mi NE 13.8 mph - N/A   Clear
12:35 AM 48.2 °F - 30.2 °F 50% 29.83 in 10.0 mi NE 11.5 mph - N/A   Clear
12:55 AM 48.2 °F - 30.2 °F 50% 29.83 in 10.0 mi NE 8.1 mph - N/A   Clear
1:15 AM 48.2 °F - 30.2 °F 50% 29.83 in 10.0 mi ENE 9.2 mph - N/A   Clear
1:35 AM 46.4 °F 41.9 °F 28.4 °F 50% 29.82 in 10.0 mi ENE 9.2 mph - N/A   Clear
2:15 AM 46.4 °F 41.9 °F 28.4 °F 50% 29.79 in 10.0 mi ENE 9.2 mph - N/A   Clear
2:35 AM 44.6 °F 40.2 °F 28.4 °F 53% 29.79 in 10.0 mi NE 8.1 mph - N/A   Clear
3:15 AM 42.8 °F 37.5 °F 28.4 °F 57% 29.77 in 10.0 mi NNE 9.2 mph - N/A   Clear
3:35 AM 42.8 °F 38.0 °F 30.2 °F 61% 29.77 in 10.0 mi NNE 8.1 mph - N/A   Clear
3:55 AM 44.6 °F 39.7 °F 30.2 °F 57% 29.77 in 10.0 mi North 9.2 mph - N/A   Clear
4:15 AM 44.6 °F 39.7 °F 32.0 °F 61% 29.76 in 10.0 mi North 9.2 mph - N/A   Clear
4:35 AM 42.8 °F 37.5 °F 32.0 °F 66% 29.73 in 10.0 mi NNE 9.2 mph - N/A   Clear
4:55 AM 42.8 °F 36.6 °F 33.8 °F 70% 29.74 in 10.0 mi North 11.5 mph - N/A   Clear
5:15 AM 42.8 °F 37.0 °F 33.8 °F 70% 29.74 in 10.0 mi North 10.4 mph - N/A   Clear
5:35 AM 42.8 °F 36.2 °F 33.8 °F 70% 29.74 in 10.0 mi North 12.7 mph - N/A   Clear
5:55 AM 42.8 °F 36.6 °F 33.8 °F 70% 29.73 in 10.0 mi North 11.5 mph - N/A   Clear
6:15 AM 42.8 °F 35.8 °F 33.8 °F 70% 29.73 in 10.0 mi North 13.8 mph - N/A   Clear
6:35 AM 42.8 °F 36.2 °F 35.6 °F 76% 29.73 in 10.0 mi NNE 12.7 mph - N/A   Clear
6:55 AM 42.8 °F 34.8 °F 35.6 °F 76% 29.72 in 10.0 mi NNE 17.3 mph - N/A   Clear
7:15 AM 42.8 °F 35.1 °F 35.6 °F 76% 29.71 in 10.0 mi NNE 16.1 mph - N/A   Clear
7:35 AM 42.8 °F 35.8 °F 35.6 °F 76% 29.71 in 10.0 mi NE 13.8 mph - N/A   Clear
7:55 AM 42.8 °F 36.6 °F 35.6 °F 76% 29.72 in 10.0 mi NE 11.5 mph - N/A   Clear
8:15 AM 42.8 °F 36.6 °F 35.6 °F 76% 29.74 in 10.0 mi NNE 11.5 mph - N/A   Clear
8:35 AM 42.8 °F 35.8 °F 35.6 °F 76% 29.74 in 10.0 mi NNE 13.8 mph - N/A   Clear
8:55 AM 42.8 °F 35.4 °F 35.6 °F 76% 29.74 in 10.0 mi NNE 15.0 mph - N/A   Clear
9:15 AM 44.6 °F 38.1 °F 35.6 °F 71% 29.75 in 10.0 mi NNE 13.8 mph - N/A   Clear
9:35 AM 44.6 °F 37.8 °F 35.6 °F 71% 29.75 in 10.0 mi NNE 15.0 mph - N/A   Clear
9:55 AM 46.4 °F 39.2 °F 35.6 °F 66% 29.75 in 10.0 mi NNE 18.4 mph - N/A   Clear
10:15 AM 46.4 °F 39.0 °F 35.6 °F 66% 29.75 in 10.0 mi NNE 19.6 mph 24.2 mph N/A   Clear
10:35 AM 48.2 °F - 35.6 °F 62% 29.75 in 10.0 mi NNE 20.7 mph - N/A   Clear
10:55 AM 48.2 °F - 35.6 °F 62% 29.75 in 10.0 mi NNE 19.6 mph 25.3 mph N/A   Clear
11:15 AM 51.8 °F - 35.6 °F 54% 29.76 in 10.0 mi NNE 19.6 mph 27.6 mph N/A   Clear
11:35 AM 51.8 °F - 35.6 °F 54% 29.76 in 10.0 mi NNE 24.2 mph - N/A   Clear
11:55 AM 51.8 °F - 35.6 °F 54% 29.77 in 10.0 mi NNE 20.7 mph 25.3 mph N/A   Clear
12:15 PM 51.8 °F - 35.6 °F 54% 29.77 in 10.0 mi NNE 21.9 mph 27.6 mph N/A   Clear
12:35 PM 51.8 °F - 35.6 °F 54% 29.75 in 10.0 mi NNE 23.0 mph 28.8 mph N/A   Clear
12:55 PM 53.6 °F - 35.6 °F 51% 29.75 in 10.0 mi NNE 25.3 mph 28.8 mph 0.05 in   Clear
1:35 PM - - - N/A% 29.80 in 10.0 mi North 21.9 mph 31.1 mph N/A   Clear
1:55 PM 53.6 °F - 35.6 °F 51% 29.81 in 10.0 mi North 19.6 mph 28.8 mph N/A   Clear
2:15 PM 55.4 °F - 35.6 °F 47% 29.81 in 10.0 mi North 21.9 mph 33.4 mph N/A   Clear
2:35 PM 53.6 °F - 33.8 °F 47% 29.82 in 10.0 mi North 20.7 mph 31.1 mph N/A   Clear
3:35 PM 55.4 °F - 33.8 °F 44% 29.87 in 10.0 mi North 24.2 mph 31.1 mph N/A   Clear
3:55 PM 53.6 °F - 33.8 °F 47% 29.89 in 10.0 mi North 23.0 mph 33.4 mph N/A   Clear
4:15 PM 53.6 °F - 33.8 °F 47% 29.92 in 10.0 mi North 21.9 mph 31.1 mph N/A   Clear
4:35 PM - - - N/A% 29.92 in 10.0 mi North 25.3 mph 32.2 mph N/A   Clear
4:55 PM 53.6 °F - 32.0 °F 44% 29.93 in 10.0 mi North 23.0 mph 31.1 mph N/A   Clear
5:15 PM - - - N/A% 29.94 in 10.0 mi North 24.2 mph 33.4 mph N/A   Clear
5:35 PM 51.8 °F - 32.0 °F 47% 29.95 in 10.0 mi North 23.0 mph 29.9 mph N/A   Mostly Cloudy
6:15 PM 50.0 °F - 30.2 °F 47% 29.96 in 10.0 mi North 17.3 mph 25.3 mph N/A   Clear
6:35 PM 48.2 °F - 30.2 °F 50% 29.97 in 10.0 mi North 15.0 mph 23.0 mph N/A   Partly Cloudy
6:55 PM 48.2 °F - 30.2 °F 50% 29.99 in 10.0 mi North 16.1 mph - N/A   Clear
7:15 PM 46.4 °F 40.1 °F 28.4 °F 50% 30.00 in 10.0 mi North 15.0 mph 21.9 mph N/A   Clear
7:35 PM 46.4 °F 41.1 °F 28.4 °F 50% 30.01 in 10.0 mi NNW 11.5 mph - N/A   Clear
8:15 PM 44.6 °F 37.4 °F 30.2 °F 57% 30.04 in 10.0 mi North 16.1 mph - N/A   Overcast
8:35 PM 44.6 °F 37.8 °F 30.2 °F 57% 30.05 in 10.0 mi North 15.0 mph - N/A   Mostly Cloudy
8:55 PM 42.8 °F 36.2 °F 28.4 °F 57% 30.05 in 10.0 mi North 12.7 mph - N/A   Scattered Clouds
9:15 PM 42.8 °F 36.6 °F 28.4 °F 57% 30.06 in 10.0 mi NNW 11.5 mph - N/A   Scattered Clouds
9:35 PM 42.8 °F 36.2 °F 30.2 °F 61% 30.05 in 10.0 mi North 12.7 mph - N/A   Partly Cloudy
9:55 PM 42.8 °F 36.6 °F 30.2 °F 61% 30.02 in 10.0 mi North 11.5 mph - N/A   Mostly Cloudy
10:15 PM 44.6 °F 39.2 °F 30.2 °F 57% 30.02 in 10.0 mi North 10.4 mph - N/A   Overcast
10:35 PM 42.8 °F 37.5 °F 30.2 °F 61% 30.03 in 10.0 mi North 9.2 mph - N/A   Mostly Cloudy
10:55 PM 42.8 °F 37.5 °F 30.2 °F 61% 30.02 in 10.0 mi North 9.2 mph - N/A   Partly Cloudy
11:15 PM 39.2 °F 33.6 °F 28.4 °F 65% 30.03 in 10.0 mi NNW 8.1 mph - N/A   Clear
11:35 PM 37.4 °F 30.8 °F 28.4 °F 70% 30.02 in 10.0 mi North 9.2 mph - N/A   Partly Cloudy
11:55 PM 39.2 °F 33.0 °F 30.2 °F 70% 30.02 in 10.0 mi North 9.2 mph - N/A   Partly Cloudy